createdAt,value
2018-05-03T00:00:19.196Z,9.87
2018-05-03T00:05:21.987Z,11.00
2018-05-03T00:10:24.719Z,10.60
2018-05-03T00:15:31.127Z,10.30
2018-05-03T00:20:33.921Z,11.60
2018-05-03T00:25:37.702Z,10.73
2018-05-03T00:30:41.120Z,10.00
2018-05-03T00:35:49.424Z,9.47
2018-05-03T00:40:52.116Z,9.90
2018-05-03T00:45:56.088Z,10.97
2018-05-03T00:50:59.642Z,9.63
2018-05-03T00:56:06.401Z,9.00
2018-05-03T01:01:09.211Z,9.60
2018-05-03T01:06:13.202Z,9.70
2018-05-03T01:11:16.960Z,9.00
2018-05-03T01:16:20.479Z,7.67
2018-05-03T01:21:24.391Z,8.40
2018-05-03T01:26:27.429Z,8.37
2018-05-03T01:31:30.079Z,7.77
2018-05-03T01:36:32.688Z,7.87
2018-05-03T01:41:36.442Z,7.23
2018-05-03T01:46:39.084Z,7.90
2018-05-03T01:51:42.648Z,8.20
2018-05-03T01:56:46.321Z,8.40
2018-05-03T02:01:48.930Z,8.03
2018-05-03T02:06:53.561Z,8.17
2018-05-03T02:11:56.589Z,8.40
2018-05-03T02:16:59.452Z,7.90
2018-05-03T02:22:04.868Z,7.40
2018-05-03T02:27:08.217Z,7.87
2018-05-03T02:32:11.101Z,6.80
2018-05-03T02:37:15.059Z,6.60
2018-05-03T02:42:18.094Z,6.90
2018-05-03T02:47:20.849Z,6.43
2018-05-03T02:52:24.123Z,7.27
2018-05-03T02:57:39.606Z,7.17
2018-05-03T03:03:01.196Z,7.50
2018-05-03T03:14:32.751Z,7.07
2018-05-03T03:19:52.322Z,7.87
2018-05-03T03:25:06.918Z,7.63
2018-05-03T03:36:10.805Z,7.03
2018-05-03T03:41:27.996Z,6.87
2018-05-03T03:46:33.303Z,8.10
2018-05-03T03:51:38.621Z,8.67
2018-05-03T03:56:42.546Z,8.00
2018-05-03T04:01:52.003Z,7.83
2018-05-03T04:06:55.198Z,8.20
2018-05-03T04:11:57.797Z,7.27
2018-05-03T04:17:03.131Z,6.77
2018-05-03T04:22:18.625Z,7.20
2018-05-03T04:27:21.743Z,6.97
2018-05-03T04:32:24.645Z,8.10
2018-05-03T04:37:27.392Z,7.60
2018-05-03T04:42:30.152Z,7.50
2018-05-03T04:47:33.540Z,8.20
2018-05-03T04:52:36.371Z,7.47
2018-05-03T04:57:39.173Z,6.87
2018-05-03T05:02:42.809Z,7.60
2018-05-03T05:07:45.561Z,7.13
2018-05-03T05:12:48.431Z,7.63
2018-05-03T05:17:51.114Z,7.80
2018-05-03T05:22:53.878Z,7.60
2018-05-03T05:27:56.608Z,7.00
2018-05-03T05:33:00.334Z,6.73
2018-05-03T05:38:05.622Z,6.90
2018-05-03T05:43:09.096Z,7.07
2018-05-03T05:48:15.003Z,6.80
2018-05-03T05:53:17.706Z,6.50
2018-05-03T05:58:20.492Z,6.80
2018-05-03T06:03:23.236Z,6.50
2018-05-03T06:08:26.952Z,6.33
2018-05-03T06:13:29.725Z,5.83
2018-05-03T06:18:32.729Z,5.87
2018-05-03T06:23:36.146Z,6.47
2018-05-03T06:28:39.564Z,16.63
2018-05-03T06:33:44.840Z,5.60
2018-05-03T06:38:50.462Z,6.20
2018-05-03T06:43:55.039Z,6.50
2018-05-03T06:48:59.341Z,5.73
2018-05-03T06:54:03.241Z,6.67
2018-05-03T06:59:06.123Z,5.90
2018-05-03T07:04:10.124Z,6.30
2018-05-03T07:09:12.732Z,6.30
2018-05-03T07:14:15.434Z,6.00
2018-05-03T07:19:20.499Z,7.80
2018-05-03T07:24:26.734Z,6.90
2018-05-03T07:29:30.805Z,6.17
2018-05-03T07:34:34.030Z,6.80
2018-05-03T07:39:37.585Z,7.43
2018-05-03T07:44:41.891Z,6.00
2018-05-03T07:49:44.539Z,7.00
2018-05-03T07:54:52.286Z,5.67
2018-05-03T07:59:54.882Z,6.70
2018-05-03T08:04:58.281Z,5.80
2018-05-03T08:10:00.863Z,6.30
2018-05-03T08:15:04.485Z,6.07
2018-05-03T08:20:07.068Z,5.57
2018-05-03T08:25:11.081Z,5.97
2018-05-03T08:30:14.460Z,5.50
2018-05-03T08:35:17.510Z,5.40
2018-05-03T08:40:20.304Z,5.47
2018-05-03T08:45:30.376Z,6.10
2018-05-03T08:50:37.630Z,5.23
2018-05-03T08:55:40.900Z,5.67
2018-05-03T09:00:43.697Z,5.40
2018-05-03T09:05:46.377Z,7.17
2018-05-03T09:10:49.379Z,5.67
2018-05-03T09:15:53.475Z,5.77
2018-05-03T09:20:56.539Z,6.13
2018-05-03T09:25:59.256Z,5.20
2018-05-03T09:31:02.694Z,5.70
2018-05-03T09:36:05.474Z,5.00
2018-05-03T09:41:08.964Z,5.23
2018-05-03T09:46:12.212Z,5.57
2018-05-03T09:56:44.660Z,6.17
2018-05-03T10:01:47.327Z,5.60
2018-05-03T10:06:50.720Z,5.57
2018-05-03T10:11:53.471Z,6.87
2018-05-03T10:16:56.386Z,5.90
2018-05-03T10:21:59.171Z,5.40
2018-05-03T10:27:02.673Z,5.67
2018-05-03T10:32:06.309Z,4.80
2018-05-03T10:37:13.001Z,5.77
2018-05-03T10:42:16.339Z,4.90
2018-05-03T10:47:19.624Z,6.50
2018-05-03T10:52:22.314Z,5.43
2018-05-03T10:57:25.812Z,5.60
2018-05-03T11:02:28.866Z,6.30
2018-05-03T11:07:31.532Z,6.17
2018-05-03T11:12:34.675Z,4.90
2018-05-03T11:17:38.402Z,5.80
2018-05-03T11:22:41.928Z,6.40
2018-05-03T11:27:44.635Z,5.70
2018-05-03T11:32:48.098Z,5.17
2018-05-03T11:37:52.009Z,5.33
2018-05-03T11:42:54.627Z,4.80
2018-05-03T11:47:57.372Z,5.13
2018-05-03T11:53:00.893Z,4.70
2018-05-03T11:58:05.145Z,4.87
2018-05-03T12:03:08.139Z,4.37
2018-05-03T12:08:13.435Z,5.50
2018-05-03T12:13:16.029Z,4.60
2018-05-03T12:18:18.633Z,4.30
2018-05-03T12:23:21.282Z,5.80
2018-05-03T12:28:24.472Z,5.97
2018-05-03T12:33:27.035Z,4.70
2018-05-03T12:38:30.763Z,4.77
2018-05-03T12:43:33.357Z,5.40
2018-05-03T12:48:35.935Z,5.40
2018-05-03T12:53:38.539Z,5.30
2018-05-03T12:58:41.111Z,5.63
2018-05-03T13:03:44.892Z,6.27
2018-05-03T13:08:54.013Z,5.20
2018-05-03T13:13:56.584Z,5.23
2018-05-03T13:18:59.169Z,6.93
2018-05-03T13:24:01.887Z,6.10
2018-05-03T13:29:05.309Z,6.27
2018-05-03T13:34:09.236Z,6.47
2018-05-03T13:39:13.356Z,5.63
2018-05-03T13:44:17.001Z,5.30
2018-05-03T13:49:19.636Z,6.60
2018-05-03T13:54:22.244Z,6.50
2018-05-03T13:59:25.103Z,5.97
2018-05-03T14:04:29.191Z,7.33
2018-05-03T14:09:32.919Z,8.57
2018-05-03T14:14:35.970Z,7.70
2018-05-03T14:19:38.681Z,7.40
2018-05-03T14:24:43.316Z,6.73
2018-05-03T14:29:47.528Z,7.80
2018-05-03T14:34:52.333Z,6.83
2018-05-03T14:39:55.289Z,6.13
2018-05-03T14:44:59.601Z,7.10
2018-05-03T14:50:03.289Z,6.67
2018-05-03T14:55:06.925Z,7.70
2018-05-03T15:00:11.441Z,7.50
2018-05-03T15:05:16.176Z,7.23
2018-05-03T15:10:19.845Z,7.57
2018-05-03T15:15:30.312Z,7.37
2018-05-03T15:20:33.501Z,7.27
2018-05-03T15:25:38.152Z,7.07
2018-05-03T15:30:41.571Z,6.23
2018-05-03T15:35:44.371Z,7.00
2018-05-03T15:40:47.057Z,5.50
2018-05-03T15:45:49.732Z,6.50
2018-05-03T15:50:52.326Z,6.60
2018-05-03T15:55:54.896Z,6.63
2018-05-03T16:00:57.558Z,7.03
2018-05-03T16:06:01.072Z,6.67
2018-05-03T16:11:05.146Z,5.60
2018-05-03T16:16:07.924Z,5.60
2018-05-03T16:21:11.259Z,5.57
2018-05-03T16:26:17.423Z,5.90
2018-05-03T16:31:20.328Z,5.83
2018-05-03T16:36:25.634Z,6.80
2018-05-03T16:41:28.884Z,5.90
2018-05-03T16:46:32.948Z,7.23
2018-05-03T16:51:35.644Z,6.37
2018-05-03T16:56:38.350Z,7.77
2018-05-03T17:01:47.795Z,7.80
2018-05-03T17:06:51.790Z,7.00
2018-05-03T17:11:54.647Z,7.30
2018-05-03T17:16:58.058Z,7.07
2018-05-03T17:22:01.973Z,7.00
2018-05-03T17:27:06.009Z,6.80
2018-05-03T17:32:10.237Z,6.73
2018-05-03T17:37:13.872Z,6.70
2018-05-03T17:42:17.391Z,6.40
2018-05-03T17:47:24.093Z,7.00
2018-05-03T17:52:28.275Z,6.40
2018-05-03T17:57:31.117Z,6.40
2018-05-03T18:02:34.746Z,6.50
2018-05-03T18:07:37.447Z,6.90
2018-05-03T18:12:41.378Z,6.13
2018-05-03T18:17:45.420Z,7.60
2018-05-03T18:22:49.133Z,7.20
2018-05-03T18:27:52.659Z,6.03
2018-05-03T18:32:56.665Z,6.17
2018-05-03T18:38:00.793Z,6.20
2018-05-03T18:43:04.608Z,6.20
2018-05-03T18:48:09.968Z,6.33
2018-05-03T18:53:13.522Z,6.33
2018-05-03T18:58:16.338Z,7.00
2018-05-03T19:03:19.576Z,7.30
2018-05-03T19:08:24.698Z,6.67
2018-05-03T19:13:28.183Z,5.67
2018-05-03T19:18:31.707Z,6.50
2018-05-03T19:23:37.871Z,7.07
2018-05-03T19:28:41.653Z,6.73
2018-05-03T19:33:45.321Z,5.93
2018-05-03T19:38:48.906Z,6.23
2018-05-03T19:43:54.342Z,6.53
2018-05-03T19:48:59.742Z,5.63
2018-05-03T19:54:02.742Z,5.70
2018-05-03T19:59:05.743Z,5.90
2018-05-03T20:04:09.160Z,4.70
2018-05-03T20:09:15.365Z,6.20
2018-05-03T20:14:19.067Z,6.13
2018-05-03T20:19:22.500Z,5.50
2018-05-03T20:24:27.052Z,5.87
2018-05-03T20:29:31.122Z,5.40
2018-05-03T20:34:33.966Z,5.97
2018-05-03T20:39:37.075Z,5.60
2018-05-03T20:44:41.624Z,6.23
2018-05-03T20:49:44.227Z,6.37
2018-05-03T20:54:46.821Z,5.30
2018-05-03T20:59:50.800Z,5.97
2018-05-03T21:04:53.511Z,6.00
2018-05-03T21:09:56.069Z,5.80
2018-05-03T21:14:59.919Z,5.43
2018-05-03T21:20:02.495Z,5.93
2018-05-03T21:25:11.711Z,5.50
2018-05-03T21:30:14.256Z,5.57
2018-05-03T21:35:17.855Z,5.37
2018-05-03T21:40:22.380Z,5.80
2018-05-03T21:45:25.515Z,5.10
2018-05-03T21:50:28.643Z,5.40
2018-05-03T21:55:32.402Z,5.50
2018-05-03T22:00:35.608Z,5.57
2018-05-03T22:05:38.752Z,5.70
2018-05-03T22:10:43.887Z,8.60
2018-05-03T22:15:46.450Z,12.50
2018-05-03T22:20:49.015Z,10.70
2018-05-03T22:25:52.885Z,6.60
2018-05-03T22:30:57.110Z,9.20
2018-05-03T22:35:59.688Z,7.47
2018-05-03T22:41:03.056Z,6.30
2018-05-03T22:46:05.645Z,6.60
2018-05-03T22:51:08.247Z,6.23
2018-05-03T22:56:11.174Z,6.20
2018-05-03T23:01:13.771Z,6.13
2018-05-03T23:06:17.580Z,6.63
2018-05-03T23:11:20.921Z,6.90
2018-05-03T23:16:23.479Z,6.63
2018-05-03T23:21:32.682Z,6.80
2018-05-03T23:26:36.010Z,7.30
2018-05-03T23:31:39.756Z,7.30
2018-05-03T23:36:42.762Z,6.67
2018-05-03T23:41:46.280Z,7.20
2018-05-03T23:46:49.466Z,6.80
2018-05-03T23:51:53.352Z,6.80
2018-05-03T23:56:55.929Z,6.70
